Time;durP1;ratioP1;P1;durP2;ratioP2;P2;SDS_P1;SDS_P2;PMS_P1;PMS_P2;Temp;Humidity;BMP_temperature;BMP_pressure;BME280_temperature;BME280_humidity;BME280_pressure;Samples;Min_cycle;Max_cycle;Signal;HPM_P1;HPM_P2
2024/03/13 00:02:13;;;;;;;5.22;1.58;;;;;;;9.51;100.00;96898.72;4935291;28;20031;-76
2024/03/13 00:04:47;;;;;;;2.60;1.98;;;;;;;9.51;100.00;96890.72;4935426;29;20037;-74
2024/03/13 00:07:16;;;;;;;2.53;1.92;;;;;;;9.57;100.00;96896.50;4951119;28;20480;-75
2024/03/13 00:09:49;;;;;;;5.63;1.48;;;;;;;9.61;100.00;96889.16;4951141;28;20058;-75
2024/03/13 00:12:20;;;;;;;7.05;1.95;;;;;;;9.50;100.00;96894.38;4951011;28;20038;-76
2024/03/13 00:14:53;;;;;;;1.40;1.02;;;;;;;9.60;100.00;96898.09;4952981;28;20054;-76
2024/03/13 00:17:20;;;;;;;;;;;;;;;9.61;100.00;96890.00;4975524;28;20085;-75
2024/03/13 00:19:51;;;;;;;3.00;1.42;;;;;;;9.58;100.00;96886.69;4957854;28;19997;-76
2024/03/13 00:22:19;;;;;;;3.00;2.17;;;;;;;9.54;100.00;96888.69;4962953;28;20023;-76
2024/03/13 00:27:47;;;;;;;4.30;1.70;;;;;;;9.58;100.00;96881.34;4953998;28;20109;-76
2024/03/13 00:30:30;;;;;;;;;;;;;;;;;;;;;
2024/03/13 00:33:04;;;;;;;5.28;1.95;;;;;;;9.59;100.00;96878.59;4972329;28;20039;-75
2024/03/13 00:35:36;;;;;;;3.00;1.63;;;;;;;9.66;100.00;96881.66;4973758;28;20033;-75
2024/03/13 00:38:11;;;;;;;4.75;2.05;;;;;;;9.69;100.00;96884.16;4973206;28;20035;-77
2024/03/13 00:40:44;;;;;;;1.92;1.40;;;;;;;9.71;100.00;96888.41;4970176;28;20525;-76
2024/03/13 00:43:20;;;;;;;2.30;1.70;;;;;;;9.76;100.00;96886.28;4972120;28;20197;-76
2024/03/13 00:45:53;;;;;;;2.50;1.92;;;;;;;9.78;100.00;96883.50;4938502;29;20027;-75
2024/03/13 00:48:31;;;;;;;;;;;;;;;;;;;;;
2024/03/13 00:51:09;;;;;;;2.95;1.52;;;;;;;9.78;100.00;96876.34;4955447;28;20129;-77
2024/03/13 00:53:34;;;;;;;7.57;1.58;;;;;;;9.88;100.00;96876.53;4942991;28;20089;-76
2024/03/13 00:56:06;;;;;;;2.08;1.77;;;;;;;9.83;100.00;96873.34;4973175;28;20474;-76
2024/03/13 00:58:38;;;;;;;1.58;1.48;;;;;;;9.87;100.00;96869.53;4957654;28;20034;-76
2024/03/13 01:01:17;;;;;;;1.83;1.65;;;;;;;9.85;100.00;96868.75;4939647;28;20113;-76
2024/03/13 01:03:47;;;;;;;2.88;2.13;;;;;;;9.89;100.00;96867.59;4938963;29;20062;-76
2024/03/13 01:06:20;;;;;;;3.55;3.17;;;;;;;9.91;100.00;96871.00;4953785;28;20027;-75
2024/03/13 01:09:14;;;;;;;2.80;1.88;;;;;;;9.84;100.00;96859.03;4953963;28;20063;-74
2024/03/13 01:12:05;;;;;;;4.32;2.20;;;;;;;9.88;100.00;96865.00;4966147;28;20026;-75
2024/03/13 01:14:59;;;;;;;5.15;2.70;;;;;;;9.89;100.00;96866.72;4968515;28;20031;-76
2024/03/13 01:17:38;;;;;;;5.40;2.75;;;;;;;9.84;100.00;96872.41;4947746;28;20513;-76
2024/03/13 01:20:14;;;;;;;4.93;2.35;;;;;;;9.83;100.00;96878.69;4956358;28;20030;-76
2024/03/13 01:22:43;;;;;;;2.42;1.52;;;;;;;9.78;100.00;96880.84;4955061;28;20038;-76
2024/03/13 01:25:12;;;;;;;3.65;1.50;;;;;;;9.68;100.00;96879.75;4937298;28;20035;-76
2024/03/13 01:27:54;;;;;;;5.78;2.72;;;;;;;9.64;100.00;96875.59;4954001;28;20019;-76
2024/03/13 01:30:25;;;;;;;7.50;3.47;;;;;;;9.62;100.00;96874.84;4950254;28;20121;-76
2024/03/13 01:33:08;;;;;;;;;;;;;;;;;;;;;
2024/03/13 01:35:42;;;;;;;3.10;2.75;;;;;;;9.64;100.00;96880.91;4963402;28;20023;-76
2024/03/13 01:38:39;;;;;;;6.25;2.55;;;;;;;9.63;100.00;96876.53;4972598;28;20483;-76
2024/03/13 01:55:27;;;;;;;2.50;2.30;;;;;;;9.67;100.00;96889.59;4954348;28;20045;-77
2024/03/13 02:03:53;;;;;;;7.93;2.80;;;;;;;9.68;100.00;96882.44;4953328;28;20037;-76
2024/03/13 02:06:29;;;;;;;1.77;1.25;;;;;;;9.69;100.00;96881.47;4936525;28;20032;-75
2024/03/13 02:09:06;;;;;;;5.38;3.03;;;;;;;9.63;100.00;96879.19;4959326;28;20403;-76
2024/03/13 02:11:31;;;;;;;4.57;2.88;;;;;;;9.62;100.00;96882.84;4952800;28;20027;-75
2024/03/13 02:14:10;;;;;;;4.88;2.72;;;;;;;9.56;100.00;96875.28;4963263;28;20034;-75
2024/03/13 02:16:41;;;;;;;2.10;1.90;;;;;;;9.49;100.00;96876.63;4972094;28;20050;-76
2024/03/13 02:19:09;;;;;;;6.97;2.78;;;;;;;9.54;100.00;96869.16;4960271;28;20054;-76
2024/03/13 02:21:59;;;;;;;5.07;3.03;;;;;;;9.48;100.00;96870.44;4936839;28;20027;-75
2024/03/13 02:24:26;;;;;;;4.20;2.28;;;;;;;9.45;100.00;96867.13;4936725;28;20195;-76
2024/03/13 02:27:19;;;;;;;2.83;2.40;;;;;;;9.46;100.00;96861.69;4963929;28;20161;-75
2024/03/13 02:30:33;;;;;;;2.15;1.83;;;;;;;9.52;100.00;96868.41;4949384;28;20404;-76
2024/03/13 02:32:58;;;;;;;1.30;1.00;;;;;;;9.50;100.00;96865.00;4966813;28;20422;-75
2024/03/13 02:35:33;;;;;;;3.38;2.13;;;;;;;9.53;100.00;96868.34;4955241;28;20038;-76
2024/03/13 02:38:16;;;;;;;3.38;2.55;;;;;;;9.51;100.00;96869.38;4971022;28;20050;-75
2024/03/13 02:40:59;;;;;;;4.97;3.45;;;;;;;9.58;100.00;96876.00;4961037;28;20038;-75
2024/03/13 02:43:36;;;;;;;1.92;1.75;;;;;;;9.58;100.00;96871.53;4966622;28;20034;-76
2024/03/13 02:46:04;;;;;;;1.90;1.58;;;;;;;9.60;100.00;96872.25;4971328;28;20027;-77
2024/03/13 02:48:32;;;;;;;3.38;2.13;;;;;;;9.56;100.00;96869.94;4971412;28;20101;-77
2024/03/13 02:51:15;;;;;;;1.60;1.50;;;;;;;9.64;100.00;96878.25;4971154;28;20093;-76
2024/03/13 02:53:43;;;;;;;2.95;1.60;;;;;;;9.64;100.00;96873.78;4972541;28;20112;-76
2024/03/13 02:56:17;;;;;;;4.95;2.05;;;;;;;9.58;100.00;96878.69;4954819;28;20054;-76
2024/03/13 02:58:49;;;;;;;5.38;2.15;;;;;;;9.60;100.00;96879.41;4971262;28;20494;-75
2024/03/13 03:01:20;;;;;;;4.47;2.50;;;;;;;9.60;100.00;96874.06;4946533;28;20031;-75
2024/03/13 03:03:59;;;;;;;4.47;2.87;;;;;;;9.59;100.00;96875.06;4951489;28;20046;-76
2024/03/13 03:06:34;;;;;;;;;;;;;;;;;;;;;
2024/03/13 03:09:10;;;;;;;4.85;2.70;;;;;;;9.54;100.00;96882.50;4953543;28;20027;-76
2024/03/13 03:11:38;;;;;;;2.53;1.92;;;;;;;9.51;100.00;96872.91;4954620;28;20073;-76
2024/03/13 03:14:07;;;;;;;2.70;1.98;;;;;;;9.40;100.00;96872.78;4960518;28;20042;-77
2024/03/13 03:17:00;;;;;;;;;;;;;;;;;;;;;
2024/03/13 03:19:37;;;;;;;3.40;2.75;;;;;;;9.50;100.00;96876.53;4971077;28;20022;-76
2024/03/13 03:22:08;;;;;;;1.25;1.15;;;;;;;9.44;100.00;96862.75;4970954;28;20098;-76
2024/03/13 03:24:41;;;;;;;5.97;1.90;;;;;;;9.33;100.00;96871.50;4971136;28;20488;-76
2024/03/13 03:27:13;;;;;;;5.93;2.25;;;;;;;9.32;100.00;96871.59;4954509;28;20070;-76
2024/03/13 03:30:15;;;;;;;7.53;2.78;;;;;;;9.38;100.00;96873.84;4970716;28;20037;-76
2024/03/13 03:32:56;;;;;;;;;;;;;;;;;;;;;
2024/03/13 03:35:55;;;;;;;1.67;1.25;;;;;;;9.36;100.00;96868.59;4971922;28;20277;-76
2024/03/13 03:38:32;;;;;;;3.30;2.22;;;;;;;9.41;100.00;96879.00;4970938;28;20050;-76
2024/03/13 03:41:20;;;;;;;5.30;1.73;;;;;;;9.31;100.00;96869.88;4970570;28;20567;-75
2024/03/13 03:43:55;;;;;;;4.47;1.60;;;;;;;9.32;100.00;96866.28;4970532;28;20090;-77
2024/03/13 03:46:29;;;;;;;1.48;1.33;;;;;;;9.28;100.00;96870.97;4972045;28;20046;-76
2024/03/13 03:49:17;;;;;;;2.22;1.98;;;;;;;9.34;100.00;96881.22;4963533;28;20125;-75
2024/03/13 03:51:51;;;;;;;3.08;2.40;;;;;;;9.42;100.00;96878.00;4960323;28;20567;-74
2024/03/13 03:54:24;;;;;;;4.20;2.30;;;;;;;9.40;100.00;96871.94;4955139;28;20595;-75
2024/03/13 03:56:53;;;;;;;1.33;1.23;;;;;;;9.34;100.00;96872.34;4960145;28;20043;-76
2024/03/13 03:59:34;;;;;;;;;;;;;;;;;;;;;
2024/03/13 04:02:14;;;;;;;2.75;1.95;;;;;;;9.41;100.00;96865.66;4955485;28;20035;-75
2024/03/13 04:04:45;;;;;;;6.40;2.90;;;;;;;9.41;100.00;96874.50;4956292;28;20034;-77
2024/03/13 04:07:16;;;;;;;1.77;1.65;;;;;;;9.42;100.00;96875.34;4939078;28;20521;-76
2024/03/13 04:09:47;;;;;;;7.57;4.03;;;;;;;9.44;100.00;96873.44;4954899;28;20054;-74
2024/03/13 04:12:15;;;;;;;2.67;2.05;;;;;;;9.43;100.00;96879.72;4961648;28;20121;-76
2024/03/13 04:14:44;;;;;;;5.13;1.77;;;;;;;9.39;100.00;96883.56;4957746;28;20037;-77
2024/03/13 04:17:31;;;;;;;5.07;3.63;;;;;;;9.42;100.00;96883.34;4947114;28;20031;-75
2024/03/13 04:20:01;;;;;;;2.05;1.60;;;;;;;9.42;100.00;96884.19;4940411;28;20043;-76
2024/03/13 04:22:36;;;;;;;11.30;2.70;;;;;;;9.42;100.00;96888.69;4938611;28;20051;-76
2024/03/13 04:25:19;;;;;;;;;;;;;;;;;;;;;
2024/03/13 04:28:14;;;;;;;2.58;2.15;;;;;;;9.42;100.00;96889.53;4952587;28;20023;-76
2024/03/13 04:30:44;;;;;;;9.43;3.40;;;;;;;9.40;100.00;96890.59;4961489;28;20118;-76
2024/03/13 04:33:18;;;;;;;4.43;2.42;;;;;;;9.40;100.00;96893.28;4970852;28;20106;-76
2024/03/13 04:35:57;;;;;;;2.08;1.98;;;;;;;9.49;100.00;96889.97;4954537;28;20050;-75
2024/03/13 04:38:28;;;;;;;3.03;2.70;;;;;;;9.46;100.00;96888.38;4939087;28;20415;-75
2024/03/13 04:40:59;;;;;;;2.95;2.33;;;;;;;9.48;100.00;96894.47;4959766;28;20558;-76
2024/03/13 04:43:37;;;;;;;;;;;;;;;;;;;;;
2024/03/13 04:46:06;;;;;;;5.18;3.10;;;;;;;9.57;100.00;96899.19;4973801;28;20030;-75
2024/03/13 04:48:44;;;;;;;5.45;2.75;;;;;;;9.50;100.00;96894.38;4971954;28;20058;-76
2024/03/13 04:51:32;;;;;;;3.70;2.78;;;;;;;9.62;100.00;96902.41;4954118;28;20029;-76
2024/03/13 04:54:17;;;;;;;;;;;;;;;;;;;;;
2024/03/13 04:56:55;;;;;;;4.22;2.67;;;;;;;9.64;100.00;96904.97;4973254;28;20035;-76
2024/03/13 05:02:20;;;;;;;3.65;2.88;;;;;;;9.69;100.00;96913.53;4963127;28;20065;-76
2024/03/13 05:04:48;;;;;;;7.75;2.67;;;;;;;9.68;100.00;96915.34;4952761;28;20031;-76
2024/03/13 05:07:18;;;;;;;3.05;2.13;;;;;;;9.70;100.00;96915.22;4946954;28;20023;-76
2024/03/13 05:09:54;;;;;;;6.57;3.67;;;;;;;9.71;100.00;96917.78;4951993;28;20089;-74
2024/03/13 05:12:40;;;;;;;3.75;2.05;;;;;;;9.67;100.00;96916.28;4935992;28;20050;-77
2024/03/13 05:15:16;;;;;;;5.80;4.30;;;;;;;9.58;100.00;96926.72;4947151;28;20062;-76
2024/03/13 05:18:09;;;;;;;3.85;2.35;;;;;;;9.70;100.00;96932.09;4944377;28;20042;-74
2024/03/13 05:20:43;;;;;;;;;;;;;;;9.74;100.00;96932.75;4959443;28;20511;-75
2024/03/13 05:23:50;;;;;;;6.38;1.90;;;;;;;9.52;100.00;96933.34;4972696;28;19920;-76
2024/03/13 05:26:29;;;;;;;2.97;2.05;;;;;;;9.53;100.00;96935.06;4959808;28;20050;-76
2024/03/13 05:29:02;;;;;;;31.98;13.55;;;;;;;9.57;100.00;96946.38;4954548;28;20159;-77
2024/03/13 05:31:33;;;;;;;11.48;6.05;;;;;;;9.58;100.00;96945.41;4950898;28;20034;-76
2024/03/13 05:34:26;;;;;;;29.27;12.65;;;;;;;9.60;100.00;96951.50;4954512;28;20035;-77
2024/03/13 05:37:04;;;;;;;16.77;4.13;;;;;;;9.58;100.00;96945.41;4937836;28;20434;-77
2024/03/13 05:39:37;;;;;;;10.55;6.00;;;;;;;9.58;100.00;96953.44;4971204;28;20027;-77
2024/03/13 05:42:10;;;;;;;6.15;3.28;;;;;;;9.56;100.00;96948.22;4963535;28;20038;-75
2024/03/13 05:44:54;;;;;;;;;;;;;;;;;;;;;
2024/03/13 05:47:34;;;;;;;11.07;3.35;;;;;;;9.66;100.00;96951.94;4960557;28;20015;-76
2024/03/13 05:50:10;;;;;;;7.38;3.65;;;;;;;9.70;100.00;96963.28;4950692;28;20118;-77
2024/03/13 05:52:52;;;;;;;1.90;1.80;;;;;;;9.78;100.00;96955.63;4971057;28;20454;-76
2024/03/13 05:55:24;;;;;;;7.18;3.60;;;;;;;9.84;100.00;96957.88;4952950;28;20035;-76
2024/03/13 05:58:26;;;;;;;3.33;1.47;;;;;;;9.96;100.00;96958.84;4944062;28;20043;-75
2024/03/13 06:00:56;;;;;;;2.15;1.95;;;;;;;10.02;100.00;96953.94;4960829;28;20324;-76
2024/03/13 06:03:25;;;;;;;3.08;1.77;;;;;;;10.09;100.00;96955.19;4972022;28;20031;-77
2024/03/13 06:06:23;;;;;;;8.35;2.20;;;;;;;10.07;100.00;96954.44;4949028;28;20039;-76
2024/03/13 06:09:01;;;;;;;1.13;1.02;;;;;;;10.08;100.00;96947.31;4944290;28;20046;-76
2024/03/13 06:11:37;;;;;;;6.63;2.33;;;;;;;10.06;100.00;96944.72;4963401;28;20038;-76
2024/03/13 06:14:05;;;;;;;3.75;1.65;;;;;;;10.07;100.00;96945.59;4971984;28;20544;-76
2024/03/13 06:16:34;;;;;;;1.33;1.23;;;;;;;10.14;100.00;96942.41;4968055;28;20027;-74
2024/03/13 06:19:30;;;;;;;3.88;1.70;;;;;;;10.22;100.00;96948.06;4936855;28;20498;-75
2024/03/13 06:22:00;;;;;;;3.30;2.05;;;;;;;10.28;100.00;96950.31;4952397;28;20042;-76
2024/03/13 06:24:36;;;;;;;2.13;1.70;;;;;;;10.30;100.00;96955.56;4951296;28;20026;-76
2024/03/13 06:27:27;;;;;;;;;;;;;;;;;;;;;
2024/03/13 06:30:06;;;;;;;2.72;2.17;;;;;;;10.33;100.00;96948.19;4971709;28;20026;-76
2024/03/13 06:32:39;;;;;;;11.07;5.32;;;;;;;10.34;100.00;96949.88;4955458;28;20520;-76
2024/03/13 06:35:12;;;;;;;5.50;3.03;;;;;;;10.45;100.00;96961.66;4936466;29;20035;-76
2024/03/13 06:37:40;;;;;;;1.73;1.20;;;;;;;10.47;100.00;96954.34;4953002;28;20045;-76
2024/03/13 06:40:42;;;;;;;1.60;1.50;;;;;;;10.40;100.00;96937.06;4954986;28;20498;-75
2024/03/13 06:43:20;;;;;;;1.58;1.48;;;;;;;10.48;100.00;96948.06;4949069;28;20027;-75
2024/03/13 06:46:19;;;;;;;1.42;1.33;;;;;;;10.49;100.00;96949.78;4934994;28;20042;-76
2024/03/13 06:49:13;;;;;;;15.50;2.65;;;;;;;10.43;100.00;96944.88;4958694;28;20599;-77
2024/03/13 06:51:42;;;;;;;2.10;1.75;;;;;;;10.42;100.00;96937.81;4961310;28;20129;-76
2024/03/13 06:54:08;;;;;;;2.13;1.48;;;;;;;10.46;100.00;96941.97;4956500;28;20026;-75
2024/03/13 06:56:56;;;;;;;2.17;1.20;;;;;;;10.43;100.00;96953.72;4963972;28;20031;-75
2024/03/13 06:59:27;;;;;;;3.58;1.42;;;;;;;10.44;100.00;96955.44;4950992;28;20031;-75
2024/03/13 07:02:25;;;;;;;2.17;1.73;;;;;;;10.45;100.00;96958.97;4941526;28;20105;-77
2024/03/13 07:05:03;;;;;;;6.22;2.65;;;;;;;10.51;100.00;96961.22;4971388;28;20033;-77
2024/03/13 07:07:38;;;;;;;1.92;1.50;;;;;;;10.52;100.00;96960.25;4971908;28;20027;-75
2024/03/13 07:10:10;;;;;;;3.17;1.80;;;;;;;10.59;100.00;96964.19;4956167;28;20023;-74
2024/03/13 07:12:41;;;;;;;3.17;2.55;;;;;;;10.48;100.00;96953.41;4959530;28;20475;-75
2024/03/13 07:15:31;;;;;;;2.45;1.48;;;;;;;10.50;100.00;96955.00;4936085;29;20066;-75
2024/03/13 07:18:09;;;;;;;2.20;1.48;;;;;;;10.43;100.00;96950.22;4964748;28;20101;-77
2024/03/13 07:20:42;;;;;;;0.57;0.57;;;;;;;10.49;100.00;96957.78;4970562;28;20042;-75
2024/03/13 07:23:12;;;;;;;0.90;0.88;;;;;;;10.44;100.00;96966.13;4946137;28;20520;-74
2024/03/13 07:25:38;;;;;;;0.70;0.55;;;;;;;10.45;100.00;96967.00;4944239;28;20472;-74
2024/03/13 07:28:11;;;;;;;1.85;1.35;;;;;;;10.56;100.00;96954.56;4941773;28;20114;-77
2024/03/13 07:30:38;;;;;;;2.83;1.45;;;;;;;10.60;100.00;96955.19;4970635;28;20478;-75
2024/03/13 07:33:16;;;;;;;10.55;1.33;;;;;;;10.63;100.00;96950.50;4937571;29;20027;-76
2024/03/13 07:35:49;;;;;;;1.17;0.65;;;;;;;10.76;100.00;96951.31;4954112;28;20026;-74
2024/03/13 07:38:15;;;;;;;0.55;0.47;;;;;;;10.80;100.00;96946.59;4939067;29;20094;-75
2024/03/13 07:40:50;;;;;;;5.70;2.97;;;;;;;10.71;100.00;96950.78;4950854;28;20039;-76
2024/03/13 07:43:16;;;;;;;3.13;2.75;;;;;;;10.68;100.00;96958.16;4950861;28;20533;-75
2024/03/13 07:45:46;;;;;;;1.73;1.63;;;;;;;10.60;100.00;96960.56;4959973;28;20051;-76
2024/03/13 07:48:34;;;;;;;1.35;0.90;;;;;;;10.63;100.00;96949.63;4951258;28;20081;-77
2024/03/13 07:51:06;;;;;;;3.55;1.15;;;;;;;10.71;100.00;96952.59;4956344;28;20030;-75
2024/03/13 07:53:42;;;;;;;0.73;0.73;;;;;;;10.82;100.00;96947.34;4954417;28;20034;-76
2024/03/13 07:56:18;;;;;;;0.82;0.57;;;;;;;11.00;100.00;96958.53;4970388;28;20391;-77
2024/03/13 07:58:43;;;;;;;4.15;2.10;;;;;;;11.12;100.00;96963.84;4954126;28;20418;-75
2024/03/13 08:01:17;;;;;;;0.38;0.35;;;;;;;11.13;100.00;96959.34;4970841;28;20023;-76
2024/03/13 08:04:02;;;;;;;0.55;0.40;;;;;;;11.07;100.00;96949.94;4959868;28;20042;-76
2024/03/13 08:06:58;;;;;;;;;;;;;;;;;;;;;
2024/03/13 08:09:37;;;;;;;0.95;0.70;;;;;;;11.19;100.00;96943.69;4952586;28;20049;-75
2024/03/13 08:12:09;;;;;;;0.65;0.65;;;;;;;11.33;100.00;96946.19;4964059;28;20081;-76
2024/03/13 08:15:02;;;;;;;;;;;;;;;;;;;;;
2024/03/13 08:17:31;;;;;;;1.77;0.47;;;;;;;11.54;100.00;96942.84;4951216;28;20040;-76
2024/03/13 08:20:12;;;;;;;0.60;0.43;;;;;;;11.76;100.00;96934.94;4959079;28;20113;-74
2024/03/13 08:22:44;;;;;;;12.85;1.75;;;;;;;12.05;100.00;96944.28;4951652;28;20481;-76
2024/03/13 08:25:16;;;;;;;0.30;0.30;;;;;;;12.17;100.00;96939.78;4959265;28;20475;-75
2024/03/13 08:28:08;;;;;;;0.70;0.70;;;;;;;12.38;100.00;96943.47;4960271;28;20023;-76
2024/03/13 08:30:36;;;;;;;0.90;0.60;;;;;;;12.51;100.00;96930.78;4970063;28;20039;-75
2024/03/13 08:33:16;;;;;;;0.57;0.57;;;;;;;12.96;100.00;96931.59;4966097;28;20106;-77
2024/03/13 08:36:04;;;;;;;0.73;0.52;;;;;;;13.43;100.00;96916.97;4955741;28;20057;-77
2024/03/13 08:38:32;;;;;;;0.22;0.22;;;;;;;14.51;100.00;96904.03;4958212;28;20023;-76
2024/03/13 08:41:01;;;;;;;2.40;0.80;;;;;;;15.83;100.00;96899.19;4957678;28;20920;-76
2024/03/13 08:43:26;;;;;;;0.40;0.40;;;;;;;15.55;100.00;96893.66;4957518;28;20545;-76
2024/03/13 08:46:01;;;;;;;4.75;2.85;;;;;;;15.64;100.00;96902.72;4971053;28;20031;-76
2024/03/13 08:48:58;;;;;;;1.00;0.95;;;;;;;15.66;100.00;96898.03;4954391;28;20475;-76
2024/03/13 08:51:29;;;;;;;0.43;0.20;;;;;;;16.17;100.00;96895.88;4968504;28;20034;-76
2024/03/13 08:54:02;;;;;;;0.20;0.20;;;;;;;16.84;95.46;96884.00;4954814;28;20042;-77
2024/03/13 08:56:39;;;;;;;1.10;0.60;;;;;;;17.25;95.02;96882.63;4937959;29;20058;-76
2024/03/13 08:59:15;;;;;;;0.10;0.10;;;;;;;18.69;85.95;96884.88;4950463;28;20033;-77
2024/03/13 09:01:49;;;;;;;0.40;0.40;;;;;;;20.13;70.73;96868.28;4972771;28;20027;-76
2024/03/13 09:04:17;;;;;;;0.70;0.38;;;;;;;20.16;69.32;96866.09;4958626;28;20023;-76
2024/03/13 09:07:03;;;;;;;0.30;0.30;;;;;;;20.92;67.39;96866.44;4973062;28;20029;-75
2024/03/13 09:09:33;;;;;;;0.38;0.35;;;;;;;21.68;60.48;96865.75;4974115;28;20043;-75
2024/03/13 09:12:02;;;;;;;0.35;0.35;;;;;;;21.10;62.72;96868.13;4966100;28;20059;-75
2024/03/13 09:14:28;;;;;;;0.75;0.65;;;;;;;21.01;58.22;96854.50;4958858;28;20034;-75
2024/03/13 09:16:59;;;;;;;0.65;0.50;;;;;;;20.19;64.08;96873.88;4953706;28;20474;-75
2024/03/13 09:19:41;;;;;;;0.65;0.65;;;;;;;19.60;65.47;96872.34;4956526;28;20093;-74
2024/03/13 09:22:17;;;;;;;0.45;0.38;;;;;;;18.21;77.51;96892.69;4956363;28;20037;-75
2024/03/13 09:24:53;;;;;;;;;;;;;;;;;;;;;
2024/03/13 09:27:22;;;;;;;0.60;0.50;;;;;;;17.76;88.75;96899.06;4961307;28;20053;-74
2024/03/13 09:29:53;;;;;;;1.30;0.47;;;;;;;17.51;91.49;96899.78;4953499;28;20027;-75
2024/03/13 09:32:24;;;;;;;0.17;0.17;;;;;;;17.31;92.62;96904.50;4953181;28;20030;-75
2024/03/13 09:35:23;;;;;;;0.63;0.63;;;;;;;16.96;97.19;96908.97;4964003;28;20055;-74
2024/03/13 09:38:04;;;;;;;1.85;0.68;;;;;;;16.77;97.89;96905.34;4966617;28;20522;-73
2024/03/13 09:40:30;;;;;;;1.40;0.60;;;;;;;17.80;89.41;96892.34;4957371;28;20027;-75
2024/03/13 09:43:10;;;;;;;;;;;;;;;;;;;;;
2024/03/13 09:45:43;;;;;;;0.13;0.13;;;;;;;19.11;74.86;96884.91;4968860;28;20041;-74
2024/03/13 09:48:38;;;;;;;1.10;0.82;;;;;;;17.98;79.21;96894.19;4955997;28;20022;-74
2024/03/13 09:51:13;;;;;;;6.18;4.18;;;;;;;17.85;82.10;96903.53;4968360;28;20026;-75
2024/03/13 09:53:45;;;;;;;6.55;4.35;;;;;;;18.40;78.25;96897.88;4963288;28;20045;-76
2024/03/13 09:56:24;;;;;;;6.40;3.88;;;;;;;18.43;75.67;96894.84;4969216;28;20042;-75
2024/03/13 09:58:54;;;;;;;6.32;4.32;;;;;;;18.47;75.95;96900.78;4956410;28;20038;-76
2024/03/13 10:01:35;;;;;;;5.70;4.40;;;;;;;17.83;84.97;96896.59;4958624;28;20031;-75
2024/03/13 10:04:22;;;;;;;9.43;4.78;;;;;;;18.27;82.21;96894.75;4947890;28;20510;-75
2024/03/13 10:06:57;;;;;;;4.40;3.40;;;;;;;19.43;70.45;96886.91;4949055;28;20027;-76
2024/03/13 10:09:32;;;;;;;5.05;3.90;;;;;;;19.40;71.58;96879.09;4963422;28;20034;-76
2024/03/13 10:12:06;;;;;;;7.00;4.50;;;;;;;19.23;69.61;96885.44;4953263;28;20090;-76
2024/03/13 10:14:35;;;;;;;6.65;4.05;;;;;;;19.32;70.25;96876.31;4969439;28;20042;-76
2024/03/13 10:17:16;;;;;;;8.00;4.63;;;;;;;19.88;67.89;96887.31;4960727;28;20031;-76
2024/03/13 10:19:48;;;;;;;7.10;4.65;;;;;;;20.92;61.49;96869.16;4958624;28;20033;-76
2024/03/13 10:22:25;;;;;;;6.07;4.00;;;;;;;20.59;59.21;96867.56;4939123;28;20039;-76
2024/03/13 10:25:01;;;;;;;8.55;3.97;;;;;;;22.93;54.17;96852.34;4952441;28;20055;-73
2024/03/13 10:27:38;;;;;;;4.60;3.55;;;;;;;24.12;47.46;96839.06;4951637;28;20024;-75
2024/03/13 10:30:14;;;;;;;4.55;3.60;;;;;;;22.60;49.04;96840.09;4962669;28;20035;-75
2024/03/13 10:32:56;;;;;;;;;;;;;;;;;;;;;
2024/03/13 10:35:25;;;;;;;10.05;4.40;;;;;;;20.17;58.00;96856.06;4955532;28;20019;-76
2024/03/13 10:37:57;;;;;;;7.57;3.83;;;;;;;19.21;63.37;96855.78;4955746;28;20121;-76
2024/03/13 10:40:31;;;;;;;4.80;3.92;;;;;;;19.47;62.90;96845.69;4945012;28;20535;-77
2024/03/13 10:43:25;;;;;;;11.65;4.55;;;;;;;18.79;67.00;96858.53;4943510;29;20047;-77
2024/03/13 10:46:25;;;;;;;11.10;5.03;;;;;;;18.96;68.46;96867.56;4958771;28;20022;-76
2024/03/13 10:49:03;;;;;;;62.17;41.50;;;;;;;18.26;67.86;96853.28;4951257;29;20057;-77
2024/03/13 10:51:37;;;;;;;15.35;11.00;;;;;;;18.11;71.38;96859.44;4953294;28;20420;-77
2024/03/13 10:54:04;;;;;;;7.03;4.32;;;;;;;17.90;66.70;96853.53;4966135;28;20411;-77
2024/03/13 10:56:32;;;;;;;7.82;4.10;;;;;;;16.75;76.63;96866.84;4949478;28;20117;-75
2024/03/13 10:59:02;;;;;;;7.38;4.68;;;;;;;16.52;85.66;96862.78;4962996;28;20039;-75
2024/03/13 11:01:42;;;;;;;6.82;4.32;;;;;;;16.87;83.12;96856.69;4935860;28;20038;-76
2024/03/13 11:04:18;;;;;;;8.15;4.50;;;;;;;16.70;88.28;96855.63;4951682;28;20058;-76
2024/03/13 11:06:49;;;;;;;5.25;4.10;;;;;;;16.42;87.02;96850.34;4962434;28;20125;-75
2024/03/13 11:09:20;;;;;;;5.32;4.35;;;;;;;16.39;90.08;96859.59;4967232;28;20097;-74
2024/03/13 11:11:59;;;;;;;7.93;4.77;;;;;;;16.54;93.29;96855.44;4951510;28;20045;-76
2024/03/13 11:14:41;;;;;;;5.05;3.63;;;;;;;16.10;91.93;96856.13;4940747;28;20114;-75
2024/03/13 11:17:16;;;;;;;6.20;4.38;;;;;;;16.08;94.88;96861.66;4959740;28;20023;-76
2024/03/13 11:19:50;;;;;;;7.93;4.70;;;;;;;15.98;95.48;96851.88;4951954;28;20475;-75
2024/03/13 11:22:18;;;;;;;4.05;3.20;;;;;;;15.58;83.63;96839.47;4935878;28;20023;-76
2024/03/13 11:24:49;;;;;;;3.92;3.10;;;;;;;15.20;81.24;96836.72;4962285;28;20058;-76
2024/03/13 11:27:20;;;;;;;7.75;3.58;;;;;;;15.16;77.38;96828.06;4960816;28;20019;-77
2024/03/13 11:29:57;;;;;;;4.35;3.35;;;;;;;14.89;82.13;96833.28;4935639;29;20027;-75
2024/03/13 11:32:44;;;;;;;5.60;2.70;;;;;;;14.99;79.62;96817.13;4953047;28;20122;-77
2024/03/13 11:35:32;;;;;;;8.50;2.75;;;;;;;15.24;72.92;96831.91;4957161;28;20059;-76
2024/03/13 11:38:03;;;;;;;2.70;2.42;;;;;;;15.07;72.17;96820.00;4956648;28;20039;-76
2024/03/13 11:40:34;;;;;;;2.78;2.22;;;;;;;15.28;68.52;96818.03;4935301;28;20095;-75
2024/03/13 11:43:08;;;;;;;3.42;2.60;;;;;;;15.83;67.19;96819.13;4941412;28;20073;-77
2024/03/13 11:45:48;;;;;;;6.00;3.38;;;;;;;16.80;61.79;96815.91;4954842;28;20077;-77
2024/03/13 11:48:18;;;;;;;5.95;3.50;;;;;;;18.49;54.16;96802.16;4950468;28;20050;-76
2024/03/13 11:51:10;;;;;;;4.47;3.28;;;;;;;18.57;53.00;96794.06;4935512;29;20118;-76
2024/03/13 11:53:49;;;;;;;;;;;;;;;19.43;50.18;96790.09;4962679;28;20109;-76
2024/03/13 11:56:34;;;;;;;;;;;;;;;;;;;;;
2024/03/13 11:59:01;;;;;;;4.07;3.20;;;;;;;18.62;51.81;96786.28;4948574;28;20466;-74
2024/03/13 12:01:57;;;;;;;13.43;7.20;;;;;;;18.35;51.22;96786.47;4937884;28;20039;-76
2024/03/13 12:04:37;;;;;;;6.45;3.65;;;;;;;18.13;51.91;96774.34;4943698;28;20472;-74
2024/03/13 12:07:18;;;;;;;3.90;2.72;;;;;;;17.70;53.72;96775.25;4957669;28;20043;-76
2024/03/13 12:09:53;;;;;;;3.25;2.30;;;;;;;18.31;52.20;96782.38;4968020;28;20042;-76
2024/03/13 12:12:46;;;;;;;3.80;2.60;;;;;;;18.26;53.13;96795.56;4937599;28;20039;-75
2024/03/13 12:15:31;;;;;;;;;;;;;;;;;;;;;
2024/03/13 12:18:04;;;;;;;3.42;2.40;;;;;;;18.92;51.82;96783.00;4968347;28;20031;-76
2024/03/13 12:20:35;;;;;;;4.93;3.13;;;;;;;19.18;50.04;96772.06;4949747;28;20509;-75
2024/03/13 12:23:17;;;;;;;4.72;3.25;;;;;;;18.08;52.61;96779.41;4935492;29;20074;-76
2024/03/13 12:25:55;;;;;;;3.85;2.78;;;;;;;17.86;52.66;96780.78;4954327;28;20035;-75
2024/03/13 12:28:30;;;;;;;3.67;2.85;;;;;;;17.11;54.89;96796.66;4959922;28;20480;-75
2024/03/13 12:31:04;;;;;;;4.13;3.40;;;;;;;16.61;56.88;96796.28;4954460;28;20027;-76
2024/03/13 12:33:44;;;;;;;3.20;2.70;;;;;;;15.86;60.57;96808.06;4954326;28;20047;-75
2024/03/13 12:36:10;;;;;;;5.03;2.45;;;;;;;15.78;61.87;96812.47;4970423;28;20031;-76
2024/03/13 12:38:48;;;;;;;4.13;2.88;;;;;;;15.46;64.11;96810.91;4961958;28;20047;-75
2024/03/13 12:41:43;;;;;;;3.78;3.10;;;;;;;15.51;64.16;96813.19;4954237;28;20054;-76
2024/03/13 12:44:15;;;;;;;6.07;3.42;;;;;;;15.27;68.44;96816.31;4938229;28;20042;-77
2024/03/13 12:46:43;;;;;;;5.20;3.60;;;;;;;15.43;70.19;96819.28;4942940;28;20022;-76
2024/03/13 12:49:12;;;;;;;4.13;3.30;;;;;;;15.33;71.39;96823.81;4959935;28;20038;-77
2024/03/13 12:52:01;;;;;;;6.20;3.88;;;;;;;15.25;73.30;96826.38;4954198;28;20368;-76
2024/03/13 12:54:31;;;;;;;7.72;4.40;;;;;;;15.11;84.84;96829.47;4950173;28;20051;-75
2024/03/13 12:57:06;;;;;;;12.13;5.63;;;;;;;14.84;93.57;96835.53;4968124;28;20138;-76
2024/03/13 12:59:40;;;;;;;8.70;4.68;;;;;;;14.77;98.77;96847.84;4938239;28;20042;-76
2024/03/13 13:02:23;;;;;;;9.05;5.35;;;;;;;14.38;99.95;96838.81;4943004;28;20026;-76
2024/03/13 13:04:52;;;;;;;5.35;3.33;;;;;;;14.22;100.00;96837.56;4953272;28;20094;-77
2024/03/13 13:07:29;;;;;;;9.43;3.67;;;;;;;14.04;100.00;96845.41;4938393;28;20476;-75
2024/03/13 13:10:03;;;;;;;16.10;4.35;;;;;;;14.10;100.00;96844.88;4954029;28;20098;-76